createdAt,value
2023-02-07T00:01:24.706Z,10.67
2023-02-07T00:03:52.578Z,12.97
2023-02-07T00:06:32.400Z,11.33
2023-02-07T00:09:02.860Z,13.33
2023-02-07T00:11:30.560Z,11.90
2023-02-07T00:13:59.015Z,11.37
2023-02-07T00:16:27.142Z,11.83
2023-02-07T00:18:55.529Z,12.30
2023-02-07T00:21:24.761Z,12.30
2023-02-07T00:23:53.155Z,10.70
2023-02-07T00:26:23.144Z,11.60
2023-02-07T00:28:52.134Z,13.27
2023-02-07T00:31:28.743Z,10.83
2023-02-07T00:34:00.443Z,11.73
2023-02-07T00:36:30.536Z,11.83
2023-02-07T00:39:00.002Z,11.20
2023-02-07T00:41:28.760Z,11.80
2023-02-07T00:43:56.806Z,13.07
2023-02-07T00:46:25.236Z,12.23
2023-02-07T00:48:55.012Z,11.03
2023-02-07T00:51:25.684Z,11.37
2023-02-07T00:53:54.559Z,11.30
2023-02-07T00:56:24.701Z,11.27
2023-02-07T00:58:52.168Z,12.07
2023-02-07T01:01:20.647Z,13.03
2023-02-07T01:03:48.483Z,11.00
2023-02-07T01:06:16.093Z,12.20
2023-02-07T01:08:43.610Z,12.67
2023-02-07T01:11:14.259Z,13.30
2023-02-07T01:13:44.537Z,11.93
2023-02-07T01:16:20.249Z,12.37
2023-02-07T01:18:48.586Z,12.03
2023-02-07T01:21:17.820Z,13.83
2023-02-07T01:23:45.565Z,12.17
2023-02-07T01:26:13.046Z,13.43
2023-02-07T01:28:41.015Z,12.70
2023-02-07T01:31:10.282Z,12.33
2023-02-07T01:33:38.460Z,13.10
2023-02-07T01:36:14.227Z,12.07
2023-02-07T01:38:42.641Z,12.83
2023-02-07T01:41:10.571Z,12.67
2023-02-07T01:43:58.267Z,12.30
2023-02-07T01:46:26.998Z,13.47
2023-02-07T01:48:58.885Z,11.90
2023-02-07T01:51:26.970Z,14.27
2023-02-07T01:53:57.788Z,14.13
2023-02-07T01:56:32.028Z,13.00
2023-02-07T01:59:04.100Z,13.53
2023-02-07T02:01:31.581Z,13.43
2023-02-07T02:03:59.415Z,13.17
2023-02-07T02:06:30.907Z,11.80
2023-02-07T02:09:01.877Z,13.47
2023-02-07T02:11:50.338Z,13.17
2023-02-07T02:14:39.275Z,13.27
2023-02-07T02:17:33.382Z,11.97
2023-02-07T02:20:19.438Z,12.40
2023-02-07T02:23:11.418Z,11.53
2023-02-07T02:25:58.993Z,11.00
2023-02-07T02:28:45.878Z,9.90
2023-02-07T02:31:39.675Z,10.70
2023-02-07T02:34:17.568Z,9.87
2023-02-07T02:37:00.659Z,10.30
2023-02-07T02:39:45.907Z,11.23
2023-02-07T02:42:34.031Z,11.07
2023-02-07T02:45:08.421Z,12.03
2023-02-07T02:47:39.083Z,12.73
2023-02-07T02:50:12.198Z,10.97
2023-02-07T02:52:50.195Z,13.93
2023-02-07T02:55:48.076Z,12.43
2023-02-07T02:58:37.450Z,12.37
2023-02-07T03:01:18.338Z,11.90
2023-02-07T03:04:07.426Z,12.30
2023-02-07T03:06:56.065Z,11.10
2023-02-07T03:10:04.343Z,10.07
2023-02-07T03:12:40.497Z,12.07
2023-02-07T03:15:18.866Z,11.10
2023-02-07T03:18:01.537Z,11.57
2023-02-07T03:20:31.794Z,12.33
2023-02-07T03:23:02.164Z,11.57
2023-02-07T03:25:31.598Z,10.17
2023-02-07T03:28:02.190Z,11.53
2023-02-07T03:30:33.705Z,11.20
2023-02-07T03:33:05.090Z,10.10
2023-02-07T03:35:52.682Z,12.20
2023-02-07T03:38:20.417Z,10.43
2023-02-07T03:40:52.217Z,10.87
2023-02-07T03:43:26.862Z,10.57
2023-02-07T03:45:54.894Z,10.87
2023-02-07T03:48:22.655Z,11.43
2023-02-07T03:50:51.985Z,11.30
2023-02-07T03:53:20.553Z,10.17
2023-02-07T03:55:48.115Z,11.73
2023-02-07T03:58:15.503Z,12.00
2023-02-07T04:00:42.894Z,10.80
2023-02-07T04:03:10.460Z,10.70
2023-02-07T04:05:38.585Z,11.93
2023-02-07T04:08:06.094Z,10.80
2023-02-07T04:10:33.549Z,12.57
2023-02-07T04:13:00.895Z,12.13
2023-02-07T04:15:28.443Z,11.47
2023-02-07T04:17:55.834Z,10.63
2023-02-07T04:20:23.190Z,9.10
2023-02-07T04:22:50.559Z,12.10
2023-02-07T04:25:18.615Z,10.67
2023-02-07T04:27:46.155Z,12.90
2023-02-07T04:30:13.765Z,10.57
2023-02-07T04:32:41.454Z,10.77
2023-02-07T04:35:08.855Z,11.67
2023-02-07T04:37:36.473Z,10.80
2023-02-07T04:40:04.033Z,11.50
2023-02-07T04:42:31.424Z,10.57
2023-02-07T04:44:58.726Z,11.27
2023-02-07T04:47:26.094Z,13.43
2023-02-07T04:49:53.459Z,12.10
2023-02-07T04:52:21.092Z,11.20
2023-02-07T04:54:48.342Z,10.63
2023-02-07T04:57:15.929Z,11.67
2023-02-07T04:59:43.187Z,11.10
2023-02-07T05:02:10.494Z,13.17
2023-02-07T05:04:38.550Z,11.37
2023-02-07T05:07:06.254Z,12.07
2023-02-07T05:09:33.515Z,11.73
2023-02-07T05:12:01.051Z,12.40
2023-02-07T05:14:28.956Z,11.70
2023-02-07T05:16:56.300Z,9.63
2023-02-07T05:19:23.629Z,11.03
2023-02-07T05:21:50.926Z,10.73
2023-02-07T05:24:18.223Z,11.37
2023-02-07T05:26:45.570Z,12.03
2023-02-07T05:29:12.827Z,10.90
2023-02-07T05:31:58.970Z,10.53
2023-02-07T05:34:26.221Z,10.53
2023-02-07T05:36:53.542Z,11.10
2023-02-07T05:39:20.926Z,9.37
2023-02-07T05:41:48.175Z,10.17
2023-02-07T05:44:15.646Z,11.53
2023-02-07T05:46:43.123Z,11.10
2023-02-07T05:49:10.682Z,10.07
2023-02-07T05:51:38.162Z,10.40
2023-02-07T05:54:05.589Z,11.20
2023-02-07T05:56:32.960Z,11.53
2023-02-07T05:59:00.713Z,12.43
2023-02-07T06:01:28.144Z,11.23
2023-02-07T06:03:55.523Z,11.43
2023-02-07T06:06:22.893Z,11.83
2023-02-07T06:08:50.333Z,12.70
2023-02-07T06:11:17.766Z,12.57
2023-02-07T06:13:45.168Z,11.27
2023-02-07T06:16:12.684Z,12.00
2023-02-07T06:18:40.101Z,12.07
2023-02-07T06:21:07.980Z,11.07
2023-02-07T06:23:35.354Z,12.67
2023-02-07T06:26:02.805Z,11.07
2023-02-07T06:28:30.381Z,12.33
2023-02-07T06:30:57.934Z,12.27
2023-02-07T06:33:25.627Z,12.50
2023-02-07T06:35:55.542Z,12.60
2023-02-07T06:38:23.092Z,12.30
2023-02-07T06:40:50.474Z,12.30
2023-02-07T06:43:18.106Z,12.87
2023-02-07T06:45:45.665Z,12.03
2023-02-07T06:48:13.144Z,13.23
2023-02-07T06:50:40.504Z,12.93
2023-02-07T06:53:07.894Z,11.27
2023-02-07T06:55:40.198Z,12.87
2023-02-07T06:58:08.475Z,13.30
2023-02-07T07:00:35.933Z,12.70
2023-02-07T07:03:03.901Z,13.00
2023-02-07T07:05:33.014Z,14.87
2023-02-07T07:08:00.647Z,11.87
2023-02-07T07:10:28.161Z,12.13
2023-02-07T07:12:55.656Z,16.40
2023-02-07T07:15:23.039Z,13.30
2023-02-07T07:17:50.674Z,12.47
2023-02-07T07:20:18.252Z,12.80
2023-02-07T07:22:45.877Z,12.63
2023-02-07T07:25:13.323Z,11.87
2023-02-07T07:27:40.762Z,10.90
2023-02-07T07:30:10.655Z,13.77
2023-02-07T07:32:38.390Z,12.90
2023-02-07T07:35:06.900Z,13.50
2023-02-07T07:37:34.471Z,14.33
2023-02-07T07:40:04.273Z,13.63
2023-02-07T07:42:31.700Z,14.47
2023-02-07T07:45:23.851Z,13.60
2023-02-07T07:47:51.272Z,13.00
2023-02-07T07:50:18.844Z,14.37
2023-02-07T07:52:46.301Z,14.87
2023-02-07T07:55:15.335Z,15.63
2023-02-07T07:57:42.791Z,18.87
2023-02-07T08:00:11.578Z,18.77
2023-02-07T08:02:42.797Z,14.73
2023-02-07T08:05:13.521Z,14.10
2023-02-07T08:07:41.283Z,15.80
2023-02-07T08:10:08.965Z,16.13
2023-02-07T08:12:36.402Z,15.87
2023-02-07T08:15:04.187Z,14.97
2023-02-07T08:17:31.574Z,16.93
2023-02-07T08:19:59.014Z,15.17
2023-02-07T08:22:26.662Z,16.53
2023-02-07T08:24:53.981Z,16.52
2023-02-07T08:27:21.429Z,15.63
2023-02-07T08:29:48.824Z,15.30
2023-02-07T08:32:16.057Z,13.52
2023-02-07T08:34:43.386Z,14.88
2023-02-07T08:37:10.768Z,14.68
2023-02-07T08:39:38.049Z,14.45
2023-02-07T08:42:08.073Z,13.68
2023-02-07T08:44:36.830Z,13.98
2023-02-07T08:47:04.615Z,13.93
2023-02-07T08:49:32.085Z,13.48
2023-02-07T08:51:59.534Z,13.93
2023-02-07T08:54:26.948Z,13.07
2023-02-07T08:56:54.459Z,12.73
2023-02-07T08:59:21.875Z,12.87
2023-02-07T09:01:49.277Z,14.33
2023-02-07T09:04:16.726Z,13.07
2023-02-07T09:06:44.449Z,12.80
2023-02-07T09:09:11.998Z,14.40
2023-02-07T09:11:39.511Z,13.67
2023-02-07T09:14:06.986Z,13.90
2023-02-07T09:16:34.440Z,12.20
2023-02-07T09:19:01.929Z,12.63
2023-02-07T09:21:31.531Z,12.77
2023-02-07T09:23:59.360Z,13.33
2023-02-07T09:26:26.854Z,15.00
2023-02-07T09:28:54.204Z,16.20
2023-02-07T09:31:22.392Z,14.37
2023-02-07T09:33:49.909Z,13.40
2023-02-07T09:36:20.293Z,13.33
2023-02-07T09:38:47.974Z,12.80
2023-02-07T09:41:22.182Z,14.17
2023-02-07T09:44:14.539Z,13.93
2023-02-07T09:47:11.730Z,11.80
2023-02-07T09:50:00.413Z,13.17
2023-02-07T09:52:49.355Z,14.03
2023-02-07T09:55:38.030Z,12.40
2023-02-07T09:58:14.906Z,11.17
2023-02-07T10:00:46.599Z,11.50
2023-02-07T10:03:20.767Z,11.70
2023-02-07T10:06:17.378Z,11.70
2023-02-07T10:08:49.614Z,11.60
2023-02-07T10:11:16.903Z,12.23
2023-02-07T10:13:52.830Z,11.93
2023-02-07T10:17:05.514Z,11.47
2023-02-07T10:19:39.739Z,11.27
2023-02-07T10:22:19.737Z,10.30
2023-02-07T10:25:16.259Z,12.57
2023-02-07T10:27:56.407Z,10.87
2023-02-07T10:30:28.613Z,10.33
2023-02-07T10:33:13.841Z,11.20
2023-02-07T10:35:45.137Z,10.37
2023-02-07T10:38:25.750Z,11.60
2023-02-07T10:40:57.320Z,10.70
2023-02-07T10:43:33.175Z,9.90
2023-02-07T10:46:07.062Z,11.77
2023-02-07T10:48:35.476Z,11.23
2023-02-07T10:51:29.731Z,11.20
2023-02-07T10:54:12.510Z,9.87
2023-02-07T10:56:50.426Z,10.33
2023-02-07T10:59:36.088Z,14.17
2023-02-07T11:02:37.372Z,10.77
2023-02-07T11:05:16.817Z,9.73
2023-02-07T11:08:00.092Z,10.47
2023-02-07T11:10:36.717Z,9.23
2023-02-07T11:13:11.842Z,9.93
2023-02-07T11:15:57.044Z,9.43
2023-02-07T11:18:38.783Z,9.63
2023-02-07T11:21:22.422Z,10.23
2023-02-07T11:23:51.210Z,10.20
2023-02-07T11:26:20.373Z,9.50
2023-02-07T11:28:53.265Z,9.80
2023-02-07T11:31:30.156Z,10.87
2023-02-07T11:34:10.342Z,9.33
2023-02-07T11:36:37.867Z,9.13
2023-02-07T11:39:18.153Z,10.30
2023-02-07T11:41:55.954Z,10.63
2023-02-07T11:44:26.092Z,13.50
2023-02-07T11:46:56.758Z,26.07
2023-02-07T11:49:40.278Z,9.20
2023-02-07T11:52:09.227Z,8.57
2023-02-07T11:54:38.856Z,10.70
2023-02-07T11:57:12.396Z,9.03
2023-02-07T11:59:53.544Z,9.23
2023-02-07T12:02:24.714Z,9.00
2023-02-07T12:04:54.778Z,8.67
2023-02-07T12:07:34.360Z,9.30
2023-02-07T12:10:05.900Z,7.87
2023-02-07T12:12:40.701Z,8.73
2023-02-07T12:15:41.719Z,8.10
2023-02-07T12:18:31.866Z,8.37
2023-02-07T12:21:24.279Z,7.67
2023-02-07T12:24:10.542Z,8.13
2023-02-07T12:27:04.699Z,8.70
2023-02-07T12:29:51.639Z,7.80
2023-02-07T12:32:46.715Z,7.37
2023-02-07T12:35:36.509Z,8.07
2023-02-07T12:38:46.565Z,7.97
2023-02-07T12:41:19.959Z,9.17
2023-02-07T12:44:15.930Z,8.13
2023-02-07T12:46:58.439Z,7.60
2023-02-07T12:49:38.922Z,8.20
2023-02-07T12:52:19.087Z,8.60
2023-02-07T12:55:13.994Z,8.30
2023-02-07T12:58:15.018Z,8.13
2023-02-07T13:01:11.493Z,7.87
2023-02-07T13:03:49.383Z,7.67
2023-02-07T13:06:40.392Z,7.43
2023-02-07T13:09:15.467Z,7.13
2023-02-07T13:11:49.916Z,7.63
2023-02-07T13:14:24.729Z,7.73
2023-02-07T13:17:15.173Z,8.07
2023-02-07T13:19:54.928Z,6.77
2023-02-07T13:22:32.653Z,7.03
2023-02-07T13:25:01.647Z,10.67
2023-02-07T13:27:30.709Z,7.30
2023-02-07T13:30:01.339Z,8.10
2023-02-07T13:32:28.823Z,6.20
2023-02-07T13:35:07.610Z,7.00
2023-02-07T13:38:07.413Z,7.77
2023-02-07T13:40:44.232Z,7.73
2023-02-07T13:43:38.253Z,8.00
2023-02-07T13:46:27.333Z,6.90
2023-02-07T13:49:16.678Z,7.67
2023-02-07T13:51:53.363Z,7.17
2023-02-07T13:54:56.228Z,7.33
2023-02-07T13:58:02.730Z,6.30
2023-02-07T14:00:34.389Z,5.57
2023-02-07T14:03:06.818Z,6.63
2023-02-07T14:05:41.689Z,6.73
2023-02-07T14:08:22.001Z,7.27
2023-02-07T14:10:57.104Z,6.57
2023-02-07T14:13:34.590Z,6.60
2023-02-07T14:16:06.024Z,6.83
2023-02-07T14:18:34.676Z,7.93
2023-02-07T14:21:04.823Z,7.67
2023-02-07T14:23:58.872Z,6.10
2023-02-07T14:26:44.877Z,7.40
2023-02-07T14:29:52.377Z,6.80
2023-02-07T14:32:20.803Z,7.10
2023-02-07T14:35:17.300Z,6.70
2023-02-07T14:37:59.730Z,8.63
2023-02-07T14:40:35.095Z,6.90
2023-02-07T14:43:06.196Z,6.87
2023-02-07T14:45:37.090Z,6.23
2023-02-07T14:48:07.096Z,5.93
2023-02-07T14:50:35.593Z,5.80
2023-02-07T14:53:05.963Z,6.93
2023-02-07T14:55:36.290Z,6.10
2023-02-07T14:58:08.642Z,6.53
2023-02-07T15:00:53.258Z,6.70
2023-02-07T15:03:21.736Z,6.13
2023-02-07T15:06:00.631Z,6.53
2023-02-07T15:08:30.378Z,7.43
2023-02-07T15:10:58.014Z,6.10
2023-02-07T15:13:34.746Z,5.73
2023-02-07T15:16:07.672Z,7.40
2023-02-07T15:18:41.238Z,6.17
2023-02-07T15:21:21.034Z,5.87
2023-02-07T15:23:58.170Z,6.47
2023-02-07T15:26:25.724Z,6.10
2023-02-07T15:29:01.152Z,6.07
2023-02-07T15:31:29.462Z,4.90
2023-02-07T15:34:00.519Z,5.73
2023-02-07T15:36:37.006Z,6.30
2023-02-07T15:39:08.034Z,4.43
2023-02-07T15:41:35.477Z,5.67
2023-02-07T15:44:04.118Z,5.07
2023-02-07T15:46:53.309Z,6.87
2023-02-07T15:49:34.401Z,5.60
2023-02-07T15:52:14.449Z,6.07
2023-02-07T15:54:48.608Z,5.77
2023-02-07T15:57:22.669Z,5.80
2023-02-07T15:59:52.377Z,5.67
2023-02-07T16:02:32.781Z,4.80
2023-02-07T16:05:11.769Z,5.77
2023-02-07T16:07:42.480Z,5.40
2023-02-07T16:10:31.008Z,5.93
2023-02-07T16:13:20.621Z,7.10
2023-02-07T16:15:56.374Z,5.77
2023-02-07T16:18:41.447Z,6.13
2023-02-07T16:21:17.230Z,6.70
2023-02-07T16:23:46.557Z,6.87
2023-02-07T16:26:18.335Z,6.53
2023-02-07T16:28:46.726Z,6.70
2023-02-07T16:31:14.271Z,6.47
2023-02-07T16:33:41.713Z,7.17
2023-02-07T16:36:17.650Z,5.97
2023-02-07T16:38:46.189Z,6.00
2023-02-07T16:41:34.480Z,9.10
2023-02-07T16:44:05.248Z,7.77
2023-02-07T16:46:33.022Z,10.20
2023-02-07T16:49:01.084Z,6.80
2023-02-07T16:51:28.652Z,6.13
2023-02-07T16:53:56.150Z,5.63
2023-02-07T16:56:26.686Z,5.93
2023-02-07T16:58:54.076Z,5.00
2023-02-07T17:01:22.496Z,5.07
2023-02-07T17:03:49.988Z,5.33
2023-02-07T17:06:20.406Z,5.33
2023-02-07T17:08:48.764Z,4.77
2023-02-07T17:11:25.237Z,6.00
2023-02-07T17:13:57.107Z,7.43
2023-02-07T17:16:26.814Z,6.37
2023-02-07T17:18:54.303Z,6.50
2023-02-07T17:21:23.678Z,6.03
2023-02-07T17:23:51.576Z,6.43
2023-02-07T17:26:28.217Z,5.47
2023-02-07T17:28:55.778Z,5.67
2023-02-07T17:31:23.427Z,5.37
2023-02-07T17:33:51.627Z,6.13
2023-02-07T17:36:19.850Z,7.07
2023-02-07T17:38:47.229Z,7.80
2023-02-07T17:41:15.540Z,9.00
2023-02-07T17:43:42.956Z,9.10
2023-02-07T17:46:19.945Z,8.23
2023-02-07T17:48:49.091Z,9.17
2023-02-07T17:51:27.442Z,8.83
2023-02-07T17:53:55.954Z,9.90
2023-02-07T17:56:29.534Z,8.37
2023-02-07T17:59:00.556Z,7.47
2023-02-07T18:01:29.165Z,7.43
2023-02-07T18:03:57.055Z,8.43
2023-02-07T18:06:26.589Z,7.83
2023-02-07T18:08:57.439Z,7.50
2023-02-07T18:11:25.906Z,7.80
2023-02-07T18:13:54.025Z,7.13
2023-02-07T18:16:23.823Z,6.57
2023-02-07T18:18:52.826Z,6.13
2023-02-07T18:21:20.539Z,6.07
2023-02-07T18:23:47.900Z,5.23
2023-02-07T18:26:16.643Z,5.73
2023-02-07T18:28:44.288Z,7.07
2023-02-07T18:31:21.895Z,6.27
2023-02-07T18:33:50.830Z,7.07
2023-02-07T18:36:19.421Z,7.20
2023-02-07T18:38:47.084Z,6.50
2023-02-07T18:41:21.110Z,6.90
2023-02-07T18:43:49.319Z,7.57
2023-02-07T18:46:20.837Z,8.23
2023-02-07T18:48:53.326Z,8.53
2023-02-07T18:51:21.126Z,7.60
2023-02-07T18:53:50.296Z,7.70
2023-02-07T18:56:21.002Z,7.33
2023-02-07T18:58:49.069Z,6.67
2023-02-07T19:01:20.369Z,7.40
2023-02-07T19:03:54.062Z,7.10
2023-02-07T19:06:23.697Z,6.93
2023-02-07T19:08:51.536Z,8.43
2023-02-07T19:11:19.424Z,7.87
2023-02-07T19:13:47.013Z,8.50
2023-02-07T19:16:19.952Z,7.53
2023-02-07T19:18:48.065Z,7.93
2023-02-07T19:21:21.540Z,7.30
2023-02-07T19:23:49.175Z,7.87
2023-02-07T19:26:16.900Z,8.23
2023-02-07T19:28:44.639Z,9.37
2023-02-07T19:31:17.842Z,8.47
2023-02-07T19:33:46.524Z,8.40
2023-02-07T19:36:15.101Z,9.37
2023-02-07T19:38:42.619Z,9.40
2023-02-07T19:41:10.121Z,10.20
2023-02-07T19:43:37.392Z,8.00
2023-02-07T19:46:05.006Z,7.83
2023-02-07T19:48:32.457Z,8.93
2023-02-07T19:51:09.736Z,10.60
2023-02-07T19:53:37.339Z,8.93
2023-02-07T19:56:09.601Z,8.87
2023-02-07T19:58:40.225Z,7.43
2023-02-07T20:01:08.137Z,9.67
2023-02-07T20:03:35.777Z,7.97
2023-02-07T20:06:05.751Z,8.80
2023-02-07T20:08:34.633Z,7.63
2023-02-07T20:11:07.159Z,7.97
2023-02-07T20:13:36.080Z,6.83
2023-02-07T20:16:08.681Z,7.40
2023-02-07T20:18:36.130Z,8.90
2023-02-07T20:21:11.927Z,7.13
2023-02-07T20:23:41.939Z,6.63
2023-02-07T20:26:11.952Z,6.83
2023-02-07T20:28:39.541Z,7.80
2023-02-07T20:31:09.536Z,8.13
2023-02-07T20:33:38.574Z,8.10
2023-02-07T20:36:07.002Z,7.87
2023-02-07T20:38:34.626Z,7.67
2023-02-07T20:41:14.143Z,8.47
2023-02-07T20:43:42.809Z,8.57
2023-02-07T20:46:13.507Z,9.43
2023-02-07T20:48:41.483Z,8.50
2023-02-07T20:51:10.450Z,9.37
2023-02-07T20:53:39.868Z,8.77
2023-02-07T20:56:17.606Z,9.50
2023-02-07T20:58:47.123Z,11.40
2023-02-07T21:01:20.623Z,12.07
2023-02-07T21:03:51.133Z,9.23
2023-02-07T21:06:20.207Z,11.27
2023-02-07T21:08:47.849Z,11.17
2023-02-07T21:11:16.960Z,11.87
2023-02-07T21:13:49.075Z,11.50
2023-02-07T21:16:20.041Z,12.27
2023-02-07T21:18:48.135Z,9.10
2023-02-07T21:21:15.994Z,8.30
2023-02-07T21:23:43.593Z,9.27
2023-02-07T21:26:13.974Z,8.60
2023-02-07T21:28:42.221Z,12.37
2023-02-07T21:31:17.994Z,9.77
2023-02-07T21:33:46.200Z,8.97
2023-02-07T21:36:20.098Z,8.37
2023-02-07T21:38:49.979Z,8.63
2023-02-07T21:41:20.503Z,10.20
2023-02-07T21:43:47.923Z,7.93
2023-02-07T21:46:18.543Z,7.50
2023-02-07T21:48:46.740Z,6.87
2023-02-07T21:51:21.312Z,7.57
2023-02-07T21:53:50.310Z,7.43
2023-02-07T21:56:20.661Z,8.73
2023-02-07T21:58:52.924Z,8.10
2023-02-07T22:01:22.047Z,6.83
2023-02-07T22:03:51.096Z,7.43
2023-02-07T22:06:19.777Z,7.20
2023-02-07T22:08:49.959Z,6.70
2023-02-07T22:11:19.509Z,6.07
2023-02-07T22:13:48.789Z,6.13
2023-02-07T22:16:18.438Z,7.10
2023-02-07T22:18:45.774Z,6.90
2023-02-07T22:21:15.766Z,7.30
2023-02-07T22:23:43.217Z,6.60
2023-02-07T22:26:11.042Z,8.53
2023-02-07T22:28:39.767Z,7.50
2023-02-07T22:31:15.262Z,7.50
2023-02-07T22:33:42.946Z,6.70
2023-02-07T22:36:15.676Z,8.60
2023-02-07T22:38:42.949Z,8.53
2023-02-07T22:41:10.354Z,8.83
2023-02-07T22:43:39.417Z,9.93
2023-02-07T22:46:09.216Z,9.43
2023-02-07T22:48:36.659Z,10.23
2023-02-07T22:51:25.192Z,8.20
2023-02-07T22:53:58.301Z,9.10
2023-02-07T22:56:26.897Z,7.07
2023-02-07T22:58:55.276Z,7.87
2023-02-07T23:01:26.727Z,9.27
2023-02-07T23:03:54.977Z,7.50
2023-02-07T23:06:24.095Z,6.87
2023-02-07T23:08:52.254Z,7.03
2023-02-07T23:11:21.593Z,7.80
2023-02-07T23:13:49.592Z,7.27
2023-02-07T23:16:20.665Z,8.40
2023-02-07T23:18:49.975Z,8.87
2023-02-07T23:21:19.430Z,6.50
2023-02-07T23:23:47.179Z,6.03
2023-02-07T23:26:16.877Z,6.33
2023-02-07T23:28:45.065Z,6.50
2023-02-07T23:31:17.102Z,8.73
2023-02-07T23:33:44.624Z,7.60
2023-02-07T23:36:12.730Z,8.00
2023-02-07T23:38:40.427Z,7.37
2023-02-07T23:41:08.037Z,8.10
2023-02-07T23:43:36.961Z,7.83
2023-02-07T23:46:05.347Z,7.50
2023-02-07T23:48:37.649Z,8.87
2023-02-07T23:51:06.709Z,7.90
2023-02-07T23:53:34.585Z,6.87
2023-02-07T23:56:04.251Z,7.07
2023-02-07T23:58:32.296Z,7.23
